createdAt,value
2018-10-01T00:01:49.071Z,10.13
2018-10-01T00:06:48.572Z,10.19
2018-10-01T00:11:49.242Z,10.19
2018-10-01T00:16:49.052Z,10.46
2018-10-01T00:21:49.512Z,10.29
2018-10-01T00:26:49.095Z,9.89
2018-10-01T00:31:49.399Z,10.09
2018-10-01T00:36:48.837Z,10.58
2018-10-01T00:41:49.061Z,10.78
2018-10-01T00:46:49.389Z,10.88
2018-10-01T00:51:48.860Z,10.88
2018-10-01T00:56:48.479Z,10.58
2018-10-01T01:01:48.764Z,10.39
2018-10-01T01:06:49.248Z,10.78
2018-10-01T01:11:48.510Z,10.49
2018-10-01T01:16:48.880Z,10.29
2018-10-01T01:21:49.263Z,10.39
2018-10-01T01:26:48.848Z,10.68
2018-10-01T01:31:49.159Z,10.78
2018-10-01T01:36:48.618Z,10.98
2018-10-01T01:41:48.828Z,10.88
2018-10-01T01:46:49.139Z,10.98
2018-10-01T01:51:48.582Z,10.98
2018-10-01T01:56:49.175Z,10.39
2018-10-01T02:01:48.501Z,10.58
2018-10-01T02:06:49.010Z,10.68
2018-10-01T02:11:49.276Z,10.39
2018-10-01T02:16:48.560Z,10.29
2018-10-01T02:21:49.018Z,10.39
2018-10-01T02:26:48.606Z,10.68
2018-10-01T02:31:48.875Z,10.68
2018-10-01T02:36:49.343Z,10.58
2018-10-01T02:41:48.632Z,10.29
2018-10-01T02:46:48.955Z,10.19
2018-10-01T02:51:49.359Z,10.19
2018-10-01T02:56:48.953Z,10.19
2018-10-01T03:01:49.244Z,9.89
2018-10-01T03:06:48.777Z,10.19
2018-10-01T03:11:48.969Z,9.89
2018-10-01T03:16:49.341Z,9.49
2018-10-01T03:21:48.754Z,9.59
2018-10-01T03:26:49.420Z,9.39
2018-10-01T03:31:48.715Z,9.49
2018-10-01T03:36:49.221Z,9.49
2018-10-01T03:41:49.305Z,9.49
2018-10-01T03:46:48.611Z,9.59
2018-10-01T03:51:49.094Z,9.39
2018-10-01T03:56:48.675Z,9.29
2018-10-01T04:01:48.955Z,9.39
2018-10-01T04:06:49.453Z,9.29
2018-10-01T04:11:48.692Z,9.39
2018-10-01T04:16:48.933Z,9.29
2018-10-01T04:21:49.397Z,9.59
2018-10-01T04:26:49.011Z,9.49
2018-10-01T04:31:49.710Z,9.79
2018-10-01T04:36:48.760Z,9.69
2018-10-01T04:41:48.992Z,9.79
2018-10-01T04:46:49.480Z,9.79
2018-10-01T04:51:48.751Z,9.89
2018-10-01T04:56:49.370Z,9.89
2018-10-01T05:01:48.670Z,9.99
2018-10-01T05:06:49.118Z,9.79
2018-10-01T05:11:49.223Z,10.09
2018-10-01T05:16:48.492Z,9.89
2018-10-01T05:21:48.963Z,9.79
2018-10-01T05:26:48.518Z,10.29
2018-10-01T05:31:48.835Z,10.29
2018-10-01T05:36:49.289Z,10.19
2018-10-01T05:41:48.542Z,10.39
2018-10-01T05:46:48.804Z,10.39
2018-10-01T05:51:49.263Z,10.19
2018-10-01T05:56:48.860Z,10.19
2018-10-01T06:01:49.156Z,10.49
2018-10-01T06:06:48.634Z,10.39
2018-10-01T06:11:49.012Z,10.49
2018-10-01T06:16:49.139Z,10.58
2018-10-01T06:21:48.636Z,10.39
2018-10-01T06:26:49.204Z,10.09
2018-10-01T06:31:48.513Z,9.99
2018-10-01T06:36:48.998Z,9.99
2018-10-01T06:41:49.668Z,10.29
2018-10-01T06:46:48.526Z,10.39
2018-10-01T06:51:48.987Z,10.19
2018-10-01T06:56:48.564Z,10.09
2018-10-01T07:01:48.855Z,9.99
2018-10-01T07:06:49.349Z,10.19
2018-10-01T07:11:48.580Z,10.29
2018-10-01T07:16:49.076Z,10.09
2018-10-01T07:21:49.344Z,10.39
2018-10-01T07:26:48.916Z,10.39
2018-10-01T07:31:49.156Z,10.68
2018-10-01T07:36:48.649Z,10.88
2018-10-01T07:41:48.838Z,10.68
2018-10-01T07:46:49.155Z,10.78
2018-10-01T07:51:48.647Z,11.08
2018-10-01T07:56:49.162Z,11.08
2018-10-01T08:01:48.493Z,11.18
2018-10-01T08:06:49.013Z,11.18
2018-10-01T08:11:49.210Z,11.38
2018-10-01T08:16:48.480Z,11.28
2018-10-01T08:21:48.967Z,11.08
2018-10-01T08:26:48.513Z,11.28
2018-10-01T08:31:48.810Z,11.58
2018-10-01T08:36:49.328Z,11.52
2018-10-01T08:41:48.513Z,11.25
2018-10-01T08:46:48.793Z,11.49
2018-10-01T08:51:49.609Z,11.56
2018-10-01T08:56:48.851Z,12.02
2018-10-01T09:01:49.126Z,11.89
2018-10-01T09:06:48.982Z,11.88
2018-10-01T09:11:48.887Z,11.98
2018-10-01T09:16:49.195Z,12.18
2018-10-01T09:21:48.654Z,12.26
2018-10-01T09:26:49.188Z,12.33
2018-10-01T09:31:48.466Z,12.11
2018-10-01T09:36:48.967Z,11.93
2018-10-01T09:41:49.183Z,12.28
2018-10-01T09:46:48.550Z,12.53
2018-10-01T09:51:48.959Z,12.58
2018-10-01T09:56:48.507Z,12.35
2018-10-01T10:01:48.829Z,12.11
2018-10-01T10:06:49.320Z,12.31
2018-10-01T10:11:48.506Z,12.47
2018-10-01T10:16:49.480Z,12.32
2018-10-01T10:21:49.268Z,12.44
2018-10-01T10:26:48.854Z,12.24
2018-10-01T10:31:49.122Z,12.22
2018-10-01T10:36:48.625Z,12.62
2018-10-01T10:41:49.069Z,12.67
2018-10-01T10:46:49.136Z,12.65
2018-10-01T10:51:48.567Z,12.97
2018-10-01T10:56:49.417Z,12.94
2018-10-01T11:01:48.450Z,12.36
2018-10-01T11:06:48.994Z,12.46
2018-10-01T11:11:49.207Z,12.16
2018-10-01T11:16:48.499Z,12.31
2018-10-01T11:21:49.212Z,12.95
2018-10-01T11:26:48.714Z,12.11
2018-10-01T11:31:49.542Z,11.92
2018-10-01T11:36:49.264Z,11.69
2018-10-01T11:41:48.487Z,11.48
2018-10-01T11:46:48.803Z,11.68
2018-10-01T11:51:49.265Z,12.28
2018-10-01T11:56:48.808Z,12.18
2018-10-01T12:01:49.189Z,11.78
2018-10-01T12:06:48.597Z,11.88
2018-10-01T12:11:48.826Z,12.08
2018-10-01T12:16:49.130Z,11.58
2018-10-01T12:21:49.113Z,11.68
2018-10-01T12:26:49.191Z,11.68
2018-10-01T12:31:48.518Z,12.28
2018-10-01T12:36:48.942Z,12.48
2018-10-01T12:41:49.073Z,12.48
2018-10-01T12:46:48.443Z,12.48
2018-10-01T12:51:50.720Z,11.98
2018-10-01T12:56:48.434Z,12.08
2018-10-01T13:01:48.690Z,12.08
2018-10-01T13:06:49.642Z,12.28
2018-10-01T13:11:48.437Z,12.88
2018-10-01T13:16:48.731Z,13.38
2018-10-01T13:21:49.212Z,13.56
2018-10-01T13:26:48.902Z,13.69
2018-10-01T13:31:49.306Z,13.46
2018-10-01T13:36:48.920Z,12.68
2018-10-01T13:41:48.779Z,11.31
2018-10-01T13:46:49.049Z,11.63
2018-10-01T13:51:48.551Z,11.50
2018-10-01T13:56:49.100Z,11.69
2018-10-01T14:01:48.514Z,11.38
2018-10-01T14:06:48.892Z,10.78
2018-10-01T14:11:49.112Z,11.28
2018-10-01T14:16:48.391Z,11.28
2018-10-01T14:21:48.885Z,11.48
2018-10-01T14:26:48.415Z,11.18
2018-10-01T14:31:48.735Z,11.18
2018-10-01T14:36:49.681Z,11.18
2018-10-01T14:41:48.385Z,11.48
2018-10-01T14:46:48.684Z,11.29
2018-10-01T14:51:49.216Z,11.48
2018-10-01T14:56:49.010Z,11.49
2018-10-01T15:01:49.061Z,11.27
2018-10-01T15:06:48.521Z,10.92
2018-10-01T15:11:48.821Z,10.79
2018-10-01T15:16:49.179Z,11.03
2018-10-01T15:21:48.596Z,10.66
2018-10-01T15:26:49.073Z,10.60
2018-10-01T15:31:48.368Z,11.24
2018-10-01T15:36:48.851Z,11.30
2018-10-01T15:41:49.072Z,11.12
2018-10-01T15:46:48.376Z,10.90
2018-10-01T15:51:48.818Z,10.60
2018-10-01T15:56:48.405Z,10.71
2018-10-01T16:01:48.735Z,10.53
2018-10-01T16:06:49.189Z,10.73
2018-10-01T16:11:48.408Z,10.49
2018-10-01T16:16:48.727Z,10.77
2018-10-01T16:21:49.160Z,10.79
2018-10-01T16:26:48.796Z,10.93
2018-10-01T16:31:49.037Z,10.82
2018-10-01T16:36:48.526Z,10.60
2018-10-01T16:41:48.746Z,10.63
2018-10-01T16:46:49.071Z,10.42
2018-10-01T16:51:48.562Z,10.50
2018-10-01T16:56:49.152Z,10.31
2018-10-01T17:01:48.435Z,10.01
2018-10-01T17:06:48.967Z,9.99
2018-10-01T17:11:49.208Z,10.22
2018-10-01T17:16:48.473Z,10.23
2018-10-01T17:21:48.926Z,10.06
2018-10-01T17:26:48.506Z,10.21
2018-10-01T17:31:48.772Z,9.79
2018-10-01T17:36:49.250Z,9.69
2018-10-01T17:41:48.469Z,9.79
2018-10-01T17:46:48.743Z,9.69
2018-10-01T17:51:49.213Z,9.89
2018-10-01T17:56:48.905Z,9.89
2018-10-01T18:01:49.100Z,9.71
2018-10-01T18:06:48.663Z,9.53
2018-10-01T18:11:48.975Z,9.57
2018-10-01T18:16:49.194Z,9.46
2018-10-01T18:21:49.330Z,9.49
2018-10-01T18:26:49.159Z,9.57
2018-10-01T18:31:48.475Z,9.66
2018-10-01T18:36:48.921Z,9.45
2018-10-01T18:41:49.195Z,9.50
2018-10-01T18:46:48.500Z,9.68
2018-10-01T18:51:48.933Z,9.70
2018-10-01T18:56:48.573Z,9.19
2018-10-01T19:01:48.841Z,9.29
2018-10-01T19:06:49.257Z,9.19
2018-10-01T19:11:48.708Z,9.29
2018-10-01T19:16:49.003Z,9.19
2018-10-01T19:21:49.264Z,8.59
2018-10-01T19:26:49.034Z,8.79
2018-10-01T19:31:49.088Z,8.79
2018-10-01T19:36:48.575Z,8.29
2018-10-01T19:41:48.821Z,8.29
2018-10-01T19:46:49.344Z,7.99
2018-10-01T19:51:48.595Z,7.99
2018-10-01T19:56:49.331Z,8.39
2018-10-01T20:01:48.460Z,8.39
2018-10-01T20:06:48.948Z,8.09
2018-10-01T20:11:49.950Z,8.29
2018-10-01T20:16:48.747Z,8.09
2018-10-01T20:21:49.093Z,8.39
2018-10-01T20:26:49.559Z,8.59
2018-10-01T20:31:49.017Z,8.59
2018-10-01T20:36:49.295Z,8.39
2018-10-01T20:41:48.638Z,7.99
2018-10-01T20:46:48.968Z,7.59
2018-10-01T20:51:49.227Z,7.69
2018-10-01T20:56:48.882Z,7.39
2018-10-01T21:01:49.112Z,7.09
2018-10-01T21:06:48.683Z,6.99
2018-10-01T21:11:48.924Z,6.89
2018-10-01T21:16:49.250Z,6.49
2018-10-01T21:21:48.652Z,6.89
2018-10-01T21:26:49.214Z,7.09
2018-10-01T21:31:48.497Z,7.09
2018-10-01T21:36:48.963Z,7.49
2018-10-01T21:41:49.204Z,6.99
2018-10-01T21:46:48.436Z,6.79
2018-10-01T21:51:48.916Z,6.39
2018-10-01T21:56:48.465Z,6.39
2018-10-01T22:01:48.851Z,6.49
2018-10-01T22:06:49.295Z,6.69
2018-10-01T22:11:48.506Z,6.29
2018-10-01T22:16:48.815Z,6.19
2018-10-01T22:21:49.271Z,6.49
2018-10-01T22:26:48.845Z,6.99
2018-10-01T22:31:49.126Z,7.29
2018-10-01T22:36:48.661Z,7.49
2018-10-01T22:41:48.839Z,7.49
2018-10-01T22:46:49.197Z,7.49
2018-10-01T22:51:49.048Z,7.79
2018-10-01T22:56:49.188Z,7.89
2018-10-01T23:01:48.550Z,7.69
2018-10-01T23:06:49.013Z,7.69
2018-10-01T23:11:49.262Z,8.19
2018-10-01T23:16:48.497Z,8.39
2018-10-01T23:21:48.980Z,8.29
2018-10-01T23:26:48.524Z,8.39
2018-10-01T23:31:48.840Z,8.39
2018-10-01T23:36:49.248Z,8.29
2018-10-01T23:41:48.491Z,8.19
2018-10-01T23:46:48.870Z,8.39
2018-10-01T23:51:48.538Z,8.49
2018-10-01T23:56:48.578Z,8.49
